Time;durP1;ratioP1;P1;durP2;ratioP2;P2;SDS_P1;SDS_P2;PMS_P1;PMS_P2;Temp;Humidity;BMP_temperature;BMP_pressure;BME280_temperature;BME280_humidity;BME280_pressure;Samples;Min_cycle;Max_cycle;Signal;HPM_P1;HPM_P2
2021/01/05 00:01:24;;;;;;;1.17;0.80;;;17.30;55.10;;;;;;5085855;28;20584;-63
2021/01/05 00:03:49;;;;;;;0.93;0.90;;;17.20;55.10;;;;;;5085530;28;20185;-62
2021/01/05 00:06:15;;;;;;;1.42;1.02;;;17.20;55.10;;;;;;5085783;28;20174;-63
2021/01/05 00:08:40;;;;;;;1.05;0.90;;;17.20;55.10;;;;;;5085836;28;20710;-62
2021/01/05 00:11:06;;;;;;;0.85;0.73;;;17.20;55.10;;;;;;5085608;28;20524;-63
2021/01/05 00:13:32;;;;;;;0.80;0.80;;;17.20;55.10;;;;;;5086046;28;20265;-65
2021/01/05 00:15:57;;;;;;;0.73;0.73;;;17.10;55.00;;;;;;5085380;28;20186;-63
2021/01/05 00:18:23;;;;;;;0.80;0.80;;;17.10;55.10;;;;;;5085531;28;20178;-64
2021/01/05 00:20:48;;;;;;;1.45;0.90;;;17.10;55.00;;;;;;5085684;28;20221;-63
2021/01/05 00:23:14;;;;;;;0.88;0.60;;;17.10;55.00;;;;;;5084930;28;20174;-63
2021/01/05 00:25:40;;;;;;;0.80;0.80;;;17.10;55.20;;;;;;5085475;28;21030;-64
2021/01/05 00:28:06;;;;;;;0.80;0.80;;;17.10;55.10;;;;;;5066989;28;20193;-64
2021/01/05 00:30:31;;;;;;;0.75;0.75;;;17.00;55.10;;;;;;5085044;28;20239;-64
2021/01/05 00:32:57;;;;;;;0.70;0.70;;;17.00;55.00;;;;;;5085281;28;20212;-63
2021/01/05 00:35:28;;;;;;;0.80;0.80;;;17.10;55.20;;;;;;5085198;28;20944;-64
2021/01/05 00:37:53;;;;;;;1.08;0.98;;;17.10;55.10;;;;;;5085144;28;20269;-64
2021/01/05 00:40:20;;;;;;;0.80;0.80;;;17.00;55.00;;;;;;5085551;28;20284;-64
2021/01/05 00:42:46;;;;;;;0.95;0.80;;;17.00;55.00;;;;;;5085215;28;21038;-64
2021/01/05 00:45:16;;;;;;;1.00;0.80;;;17.00;55.00;;;;;;5067405;28;20293;-64
2021/01/05 00:47:42;;;;;;;0.60;0.60;;;17.00;55.10;;;;;;5066878;28;20182;-64
2021/01/05 00:50:08;;;;;;;1.25;0.98;;;16.90;55.00;;;;;;5084732;28;20197;-65
2021/01/05 00:52:33;;;;;;;0.80;0.80;;;17.00;55.00;;;;;;5084767;28;20304;-64
2021/01/05 00:54:59;;;;;;;0.60;0.60;;;17.00;55.00;;;;;;5085062;28;20702;-63
2021/01/05 00:57:25;;;;;;;1.02;0.90;;;16.90;55.00;;;;;;5084943;28;20619;-63
2021/01/05 00:59:50;;;;;;;1.10;1.00;;;16.90;55.00;;;;;;5084830;28;20181;-64
2021/01/05 01:02:16;;;;;;;0.60;0.60;;;16.90;55.10;;;;;;5084731;28;20263;-64
2021/01/05 01:04:41;;;;;;;0.80;0.80;;;16.90;55.10;;;;;;5084791;28;20185;-64
2021/01/05 01:07:07;;;;;;;0.70;0.70;;;16.90;55.00;;;;;;5084523;28;20192;-63
2021/01/05 01:09:32;;;;;;;0.65;0.65;;;16.90;55.00;;;;;;5084376;28;20184;-63
2021/01/05 01:12:00;;;;;;;1.02;0.93;;;16.90;55.10;;;;;;5084400;28;20220;-64
2021/01/05 01:14:26;;;;;;;2.42;1.10;;;16.80;55.00;;;;;;5066518;28;20178;-64
2021/01/05 01:16:51;;;;;;;1.20;0.93;;;16.80;55.00;;;;;;5084643;28;20368;-65
2021/01/05 01:19:17;;;;;;;0.80;0.80;;;16.90;55.10;;;;;;5084249;28;20212;-64
2021/01/05 01:21:46;;;;;;;1.05;0.95;;;16.80;55.00;;;;;;5084513;28;21031;-64
2021/01/05 01:24:12;;;;;;;0.90;0.90;;;16.80;55.00;;;;;;5083914;28;20303;-64
2021/01/05 01:26:38;;;;;;;1.70;1.17;;;16.80;55.00;;;;;;5084201;28;20265;-64
2021/01/05 01:29:03;;;;;;;1.00;0.90;;;16.80;55.00;;;;;;5066052;28;20196;-64
2021/01/05 01:31:29;;;;;;;1.10;1.10;;;16.80;55.10;;;;;;5084192;28;20326;-63
2021/01/05 01:33:54;;;;;;;0.80;0.80;;;16.80;55.00;;;;;;5083760;28;20181;-63
2021/01/05 01:36:20;;;;;;;0.70;0.70;;;16.70;55.00;;;;;;5084244;28;20639;-63
2021/01/05 01:38:45;;;;;;;1.38;0.80;;;16.80;55.00;;;;;;5084083;28;20173;-63
2021/01/05 01:41:11;;;;;;;1.20;0.75;;;16.70;55.00;;;;;;5083781;28;20181;-63
2021/01/05 01:43:36;;;;;;;1.27;0.90;;;16.70;55.00;;;;;;5084528;28;20170;-64
2021/01/05 01:46:02;;;;;;;0.70;0.70;;;16.70;55.00;;;;;;5084074;28;20522;-64
2021/01/05 01:48:28;;;;;;;0.75;0.75;;;16.70;55.10;;;;;;5065810;28;20174;-64
2021/01/05 01:50:54;;;;;;;0.77;0.63;;;16.70;55.10;;;;;;5084002;28;20265;-63
2021/01/05 01:53:35;;;;;;;0.80;0.80;;;16.70;55.00;;;;;;5066146;28;20198;-64
2021/01/05 01:56:16;;;;;;;0.80;0.80;;;16.70;55.00;;;;;;5084011;28;20173;-63
2021/01/05 01:59:13;;;;;;;0.70;0.70;;;16.70;55.00;;;;;;5066998;28;20691;-63
2021/01/05 02:01:44;;;;;;;1.10;1.00;;;16.70;55.00;;;;;;5083943;28;20714;-62
2021/01/05 02:04:23;;;;;;;0.90;0.70;;;16.60;55.00;;;;;;5083886;28;20174;-62
2021/01/05 02:06:54;;;;;;;0.70;0.70;;;16.60;55.10;;;;;;5066115;28;20170;-64
2021/01/05 02:09:53;;;;;;;0.90;0.90;;;16.60;55.00;;;;;;5065840;28;20181;-62
2021/01/05 02:12:28;;;;;;;0.80;0.80;;;16.60;55.00;;;;;;5083702;28;20206;-62
2021/01/05 02:15:02;;;;;;;0.88;0.88;;;16.60;55.00;;;;;;5066015;28;20165;-64
2021/01/05 02:17:46;;;;;;;0.80;0.80;;;16.60;55.10;;;;;;5084149;28;20555;-63
2021/01/05 02:20:14;;;;;;;1.27;0.98;;;16.60;55.00;;;;;;5084062;28;20249;-63
2021/01/05 02:23:03;;;;;;;0.85;0.85;;;16.60;55.00;;;;;;5065946;28;20198;-64
2021/01/05 02:25:46;;;;;;;0.98;0.98;;;16.50;55.00;;;;;;5065677;28;20698;-63
2021/01/05 02:28:12;;;;;;;1.15;0.98;;;16.50;55.00;;;;;;5083662;28;20198;-64
2021/01/05 02:30:44;;;;;;;0.85;0.70;;;16.50;55.10;;;;;;5083932;28;20178;-63
2021/01/05 02:33:16;;;;;;;0.90;0.90;;;16.50;55.10;;;;;;5065358;28;20212;-62
2021/01/05 02:36:10;;;;;;;1.55;1.10;;;16.50;55.00;;;;;;5065852;28;20185;-63
2021/01/05 02:39:15;;;;;;;1.08;1.05;;;16.50;55.00;;;;;;5070404;28;20667;-63
2021/01/05 02:42:05;;;;;;;0.75;0.75;;;16.50;55.00;;;;;;5071898;28;20185;-63
2021/01/05 02:44:39;;;;;;;1.23;1.13;;;16.50;55.00;;;;;;5069428;28;20611;-65
2021/01/05 02:47:20;;;;;;;1.13;1.13;;;16.50;55.00;;;;;;5086900;28;20173;-64
2021/01/05 02:49:46;;;;;;;0.80;0.80;;;16.50;55.00;;;;;;5087285;28;20177;-63
2021/01/05 02:52:30;;;;;;;0.90;0.82;;;16.50;55.00;;;;;;5087107;28;20639;-64
2021/01/05 02:54:59;;;;;;;0.93;0.93;;;16.40;54.90;;;;;;5087070;28;20238;-62
2021/01/05 02:57:30;;;;;;;0.93;0.88;;;16.40;55.00;;;;;;5087001;28;20190;-64
2021/01/05 03:00:14;;;;;;;1.13;1.02;;;16.40;55.00;;;;;;5078124;28;20260;-62
2021/01/05 03:03:09;;;;;;;1.40;1.00;;;16.40;55.00;;;;;;5098226;28;20208;-62
2021/01/05 03:05:35;;;;;;;0.90;0.90;;;16.40;55.00;;;;;;5069992;28;20189;-61
2021/01/05 03:08:01;;;;;;;0.80;0.80;;;16.40;55.00;;;;;;5086617;28;20227;-62
2021/01/05 03:10:48;;;;;;;0.90;0.90;;;16.40;55.00;;;;;;5086603;28;20174;-62
2021/01/05 03:13:28;;;;;;;1.00;1.00;;;16.30;55.00;;;;;;5071358;28;20288;-62
2021/01/05 03:16:12;;;;;;;0.98;0.90;;;16.40;55.00;;;;;;5101821;28;20259;-62
2021/01/05 03:18:50;;;;;;;0.90;0.90;;;16.30;55.00;;;;;;5072946;28;20169;-64
2021/01/05 03:21:23;;;;;;;1.05;1.00;;;16.30;54.90;;;;;;5088263;28;20482;-63
2021/01/05 03:23:52;;;;;;;1.20;1.10;;;16.30;54.90;;;;;;5072158;28;21127;-63
2021/01/05 03:26:20;;;;;;;0.80;0.80;;;16.30;55.30;;;;;;5071865;28;20177;-63
2021/01/05 03:28:45;;;;;;;0.80;0.80;;;16.40;55.00;;;;;;5072210;28;20250;-63
2021/01/05 03:31:45;;;;;;;0.98;0.90;;;16.30;55.00;;;;;;5071430;28;20518;-62
2021/01/05 03:34:10;;;;;;;0.93;0.93;;;16.30;55.00;;;;;;5030477;28;20647;-62
2021/01/05 03:36:36;;;;;;;0.95;0.95;;;16.30;55.00;;;;;;5086470;28;20180;-63
2021/01/05 03:39:02;;;;;;;1.00;1.00;;;16.30;55.00;;;;;;5086173;28;20629;-63
2021/01/05 03:41:29;;;;;;;1.10;1.10;;;16.20;55.00;;;;;;5086312;28;20170;-62
2021/01/05 03:43:55;;;;;;;0.90;0.90;;;16.30;55.00;;;;;;5068752;28;20287;-64
2021/01/05 03:46:22;;;;;;;1.15;1.13;;;16.20;54.90;;;;;;5086113;28;20643;-63
2021/01/05 03:48:47;;;;;;;1.00;1.00;;;16.20;54.90;;;;;;5085855;28;20162;-63
2021/01/05 03:51:13;;;;;;;1.20;1.10;;;16.20;54.90;;;;;;5068027;28;20185;-63
2021/01/05 03:53:38;;;;;;;0.85;0.85;;;16.30;55.00;;;;;;5085893;28;20176;-63
2021/01/05 03:56:07;;;;;;;1.08;1.08;;;16.20;54.90;;;;;;5085961;28;20177;-63
2021/01/05 03:58:33;;;;;;;0.90;0.80;;;16.20;55.00;;;;;;5086042;28;20169;-62
2021/01/05 04:00:58;;;;;;;1.02;1.02;;;16.20;54.90;;;;;;5085861;28;20623;-63
2021/01/05 04:03:24;;;;;;;1.00;1.00;;;16.20;55.00;;;;;;5085841;28;20181;-62
2021/01/05 04:05:50;;;;;;;1.00;1.00;;;16.20;55.00;;;;;;5090029;28;20188;-62
2021/01/05 04:08:15;;;;;;;1.10;1.00;;;16.10;55.00;;;;;;5106145;28;20540;-62
2021/01/05 04:10:41;;;;;;;1.02;1.02;;;16.10;55.00;;;;;;5105692;28;20173;-63
2021/01/05 04:13:07;;;;;;;1.77;1.10;;;16.20;55.00;;;;;;5087991;28;20789;-63
2021/01/05 04:15:32;;;;;;;1.15;1.05;;;16.10;55.00;;;;;;5105859;28;20181;-63
2021/01/05 04:17:58;;;;;;;0.95;0.95;;;16.10;55.00;;;;;;5105695;28;20207;-64
2021/01/05 04:20:25;;;;;;;0.90;0.90;;;16.10;55.00;;;;;;5087697;28;20187;-64
2021/01/05 04:22:50;;;;;;;1.35;1.25;;;16.10;55.00;;;;;;5087613;28;20283;-64
2021/01/05 04:25:17;;;;;;;1.45;1.02;;;16.10;55.00;;;;;;5105699;28;20589;-64
2021/01/05 04:27:42;;;;;;;1.00;1.00;;;16.10;55.00;;;;;;5105808;28;20181;-63
2021/01/05 04:30:15;;;;;;;1.10;1.10;;;16.10;55.00;;;;;;5105737;28;20572;-63
2021/01/05 04:32:41;;;;;;;0.90;0.90;;;16.10;55.00;;;;;;5087168;28;20216;-63
2021/01/05 04:35:07;;;;;;;1.17;1.15;;;16.10;55.00;;;;;;5105464;28;20186;-63
2021/01/05 04:37:33;;;;;;;1.30;1.20;;;16.10;55.00;;;;;;5105645;28;20615;-63
2021/01/05 04:39:58;;;;;;;1.00;1.00;;;16.10;55.60;;;;;;5105659;28;20169;-65
2021/01/05 04:42:37;;;;;;;0.98;0.98;;;16.00;54.90;;;;;;5105506;28;20634;-64
2021/01/05 04:45:12;;;;;;;1.00;1.00;;;16.00;55.00;;;;;;5070616;28;20173;-65
2021/01/05 04:48:03;;;;;;;1.05;1.05;;;16.00;54.90;;;;;;5070767;28;20230;-64
2021/01/05 04:50:48;;;;;;;1.30;1.20;;;16.00;55.00;;;;;;5105523;28;20173;-64
2021/01/05 04:53:26;;;;;;;1.30;1.20;;;16.00;55.00;;;;;;5070584;28;20292;-64
2021/01/05 04:55:54;;;;;;;1.30;1.20;;;16.00;55.00;;;;;;5070292;28;20173;-63
2021/01/05 04:58:29;;;;;;;1.27;1.17;;;16.00;55.00;;;;;;5070001;28;20188;-64
2021/01/05 05:00:55;;;;;;;0.90;0.90;;;16.00;55.00;;;;;;5105062;28;20179;-63
2021/01/05 05:03:44;;;;;;;1.60;1.10;;;16.00;55.00;;;;;;5070149;28;20170;-62
2021/01/05 05:06:30;;;;;;;1.30;1.20;;;16.00;55.00;;;;;;5105015;28;20176;-63
2021/01/05 05:09:07;;;;;;;0.90;0.90;;;16.00;55.00;;;;;;5086707;28;20683;-62
2021/01/05 05:12:00;;;;;;;1.05;1.02;;;15.90;55.60;;;;;;5104711;28;20203;-62
2021/01/05 05:14:41;;;;;;;1.38;1.27;;;15.90;55.00;;;;;;5089786;28;20588;-63
2021/01/05 05:17:44;;;;;;;0.93;0.93;;;15.90;55.00;;;;;;5105014;28;20176;-63
2021/01/05 05:20:20;;;;;;;1.13;1.13;;;16.00;55.00;;;;;;5104721;28;20184;-64
2021/01/05 05:22:51;;;;;;;1.20;1.10;;;15.90;55.00;;;;;;5070325;28;20912;-63
2021/01/05 05:25:20;;;;;;;1.20;1.10;;;15.90;55.00;;;;;;5086768;28;20587;-63
2021/01/05 05:27:50;;;;;;;1.33;1.23;;;15.90;55.00;;;;;;5070161;28;20189;-63
2021/01/05 05:30:30;;;;;;;1.50;1.40;;;15.80;55.00;;;;;;5087024;28;20255;-64
2021/01/05 05:32:56;;;;;;;1.10;1.10;;;15.90;55.00;;;;;;5104505;28;20197;-62
2021/01/05 05:35:40;;;;;;;1.20;1.20;;;15.90;55.00;;;;;;5069804;28;20180;-61
2021/01/05 05:38:07;;;;;;;1.40;1.30;;;15.90;55.00;;;;;;5104918;28;20576;-63
2021/01/05 05:40:53;;;;;;;1.10;1.10;;;15.80;55.00;;;;;;5104923;28;20174;-64
2021/01/05 05:44:12;;;;;;;1.50;1.40;;;15.80;55.00;;;;;;5086049;28;20173;-64
2021/01/05 05:46:43;;;;;;;1.13;1.13;;;15.80;55.00;;;;;;5002193;28;20192;-63
2021/01/05 05:50:05;;;;;;;1.30;1.20;;;15.90;55.10;;;;;;5065268;28;20200;-62
2021/01/05 05:52:30;;;;;;;1.27;1.20;;;15.80;55.00;;;;;;5013090;28;20298;-63
2021/01/05 05:54:56;;;;;;;1.23;1.20;;;15.80;55.00;;;;;;5082706;28;20520;-63
2021/01/05 05:57:42;;;;;;;1.52;1.42;;;15.80;55.00;;;;;;5069560;28;20691;-63
2021/01/05 06:00:14;;;;;;;1.10;1.10;;;15.80;55.00;;;;;;5086337;28;20627;-63
2021/01/05 06:02:40;;;;;;;1.10;1.10;;;15.80;55.00;;;;;;5104249;28;20222;-64
2021/01/05 06:05:20;;;;;;;0.90;0.90;;;15.90;55.10;;;;;;5104534;28;20200;-63
2021/01/05 06:07:45;;;;;;;1.00;1.00;;;16.00;55.30;;;;;;5104354;28;20169;-62
2021/01/05 06:10:11;;;;;;;1.15;1.15;;;16.20;55.20;;;;;;5104917;28;20541;-63
2021/01/05 06:12:37;;;;;;;1.05;1.00;;;16.50;55.00;;;;;;5090044;28;20666;-63
2021/01/05 06:15:03;;;;;;;0.80;0.80;;;16.70;54.60;;;;;;5108296;28;20180;-64
2021/01/05 06:17:28;;;;;;;1.08;0.98;;;17.00;54.00;;;;;;5108019;28;20185;-63
2021/01/05 06:19:54;;;;;;;0.80;0.80;;;17.40;53.20;;;;;;5108327;28;20184;-64
2021/01/05 06:22:19;;;;;;;0.80;0.80;;;17.80;52.60;;;;;;5108186;28;20181;-65
2021/01/05 06:24:45;;;;;;;1.10;1.00;;;18.10;52.10;;;;;;5108144;28;20264;-64
2021/01/05 06:27:10;;;;;;;0.90;0.90;;;18.30;51.70;;;;;;5108010;28;20193;-64
2021/01/05 06:29:36;;;;;;;1.00;0.95;;;18.50;51.50;;;;;;5108119;28;20173;-64
2021/01/05 06:32:01;;;;;;;0.95;0.95;;;18.60;51.20;;;;;;5107737;28;20208;-62
2021/01/05 06:34:27;;;;;;;0.80;0.80;;;18.70;51.00;;;;;;5107796;28;20184;-63
2021/01/05 06:36:53;;;;;;;0.90;0.90;;;18.70;50.90;;;;;;5107663;28;20583;-64
2021/01/05 06:39:18;;;;;;;0.90;0.90;;;18.80;50.90;;;;;;5107386;28;20273;-65
2021/01/05 06:41:44;;;;;;;0.88;0.88;;;18.70;51.00;;;;;;5107472;28;20275;-63
2021/01/05 06:44:09;;;;;;;1.00;0.90;;;18.80;51.00;;;;;;5107636;28;20207;-64
2021/01/05 06:46:35;;;;;;;0.90;0.90;;;18.80;51.00;;;;;;5107358;28;20161;-64
2021/01/05 06:49:00;;;;;;;0.80;0.80;;;18.80;51.00;;;;;;5107608;28;20165;-64
2021/01/05 06:51:26;;;;;;;1.00;1.00;;;18.70;51.20;;;;;;5107357;28;20169;-63
2021/01/05 06:53:51;;;;;;;0.80;0.80;;;18.60;51.20;;;;;;5107055;28;20185;-63
2021/01/05 06:56:17;;;;;;;1.00;1.00;;;18.70;51.30;;;;;;5107446;28;20171;-64
2021/01/05 06:58:42;;;;;;;0.85;0.85;;;18.70;51.30;;;;;;5107881;28;20173;-64
2021/01/05 07:01:08;;;;;;;1.17;0.82;;;18.60;51.30;;;;;;5107427;28;20623;-63
2021/01/05 07:03:33;;;;;;;0.80;0.80;;;18.60;51.40;;;;;;5107471;28;20568;-62
2021/01/05 07:05:59;;;;;;;1.08;0.90;;;18.60;51.40;;;;;;5107297;28;20173;-63
2021/01/05 07:08:25;;;;;;;0.80;0.80;;;18.60;51.50;;;;;;5107597;28;20575;-63
2021/01/05 07:10:51;;;;;;;0.90;0.90;;;18.50;51.60;;;;;;5107387;28;20192;-62
2021/01/05 07:13:16;;;;;;;0.70;0.70;;;18.40;51.80;;;;;;5107088;28;20209;-63
2021/01/05 07:15:42;;;;;;;0.90;0.90;;;18.30;52.00;;;;;;5107230;28;20179;-63
2021/01/05 07:18:09;;;;;;;0.90;0.90;;;18.20;52.10;;;;;;5107013;28;20207;-64
2021/01/05 07:20:34;;;;;;;0.90;0.90;;;18.10;52.30;;;;;;5088964;28;20165;-63
2021/01/05 07:23:00;;;;;;;0.57;0.57;;;18.10;52.50;;;;;;5105948;28;20656;-63
2021/01/05 07:25:25;;;;;;;0.90;0.90;;;18.00;52.50;;;;;;5107011;28;20238;-64
2021/01/05 07:27:51;;;;;;;0.85;0.85;;;18.00;52.60;;;;;;5106893;28;20205;-64
2021/01/05 07:30:17;;;;;;;0.80;0.80;;;18.00;52.60;;;;;;5106868;28;20169;-64
2021/01/05 07:32:43;;;;;;;0.80;0.80;;;18.00;52.50;;;;;;5107072;28;20982;-62
2021/01/05 07:35:10;;;;;;;0.70;0.70;;;18.00;52.50;;;;;;5106900;28;20173;-64
2021/01/05 07:37:37;;;;;;;0.82;0.82;;;18.00;52.50;;;;;;5106987;28;20950;-63
2021/01/05 07:40:05;;;;;;;1.30;0.80;;;18.10;52.50;;;;;;5088802;28;20211;-64
2021/01/05 07:42:31;;;;;;;0.90;0.90;;;18.10;52.40;;;;;;5106549;28;20178;-64
2021/01/05 07:45:02;;;;;;;0.90;0.90;;;18.10;52.40;;;;;;5088484;28;20173;-64
2021/01/05 07:47:28;;;;;;;1.00;1.00;;;18.20;52.30;;;;;;5106723;28;20172;-63
2021/01/05 07:49:54;;;;;;;0.98;0.98;;;18.20;52.30;;;;;;5106138;28;20526;-64
2021/01/05 07:52:22;;;;;;;0.93;0.93;;;18.20;52.30;;;;;;5106050;28;20193;-63
2021/01/05 07:54:48;;;;;;;0.88;0.88;;;18.10;52.30;;;;;;5106551;28;20177;-63
2021/01/05 07:57:14;;;;;;;0.90;0.90;;;18.10;53.10;;;;;;5106357;28;20177;-63
2021/01/05 07:59:39;;;;;;;1.10;1.00;;;18.00;52.60;;;;;;5106607;28;20578;-64
2021/01/05 08:02:07;;;;;;;1.20;1.10;;;17.90;52.80;;;;;;5106471;28;20169;-63
2021/01/05 08:04:32;;;;;;;0.75;0.75;;;17.80;52.90;;;;;;5106366;28;20176;-63
2021/01/05 08:06:58;;;;;;;0.70;0.70;;;17.80;53.00;;;;;;5106362;28;20177;-64
2021/01/05 08:09:24;;;;;;;1.00;1.00;;;17.70;53.00;;;;;;5106168;28;20173;-63
2021/01/05 08:11:49;;;;;;;0.82;0.82;;;17.80;53.00;;;;;;5106131;28;20197;-62
2021/01/05 08:14:15;;;;;;;0.90;0.90;;;17.80;53.00;;;;;;5106286;28;20173;-64
2021/01/05 08:16:40;;;;;;;0.98;0.98;;;17.80;53.00;;;;;;5105991;28;20256;-64
2021/01/05 08:19:06;;;;;;;0.90;0.90;;;17.90;53.00;;;;;;5105939;28;20608;-64
2021/01/05 08:21:32;;;;;;;0.95;0.93;;;17.90;53.00;;;;;;5105778;28;20177;-63
2021/01/05 08:23:57;;;;;;;0.85;0.85;;;17.90;52.90;;;;;;5105955;28;20296;-64
2021/01/05 08:26:23;;;;;;;1.15;1.05;;;18.00;52.80;;;;;;5105481;28;20180;-63
2021/01/05 08:28:48;;;;;;;1.00;1.00;;;18.00;52.70;;;;;;5105515;28;20197;-63
2021/01/05 08:31:14;;;;;;;1.85;0.90;;;18.00;52.80;;;;;;5105382;28;20169;-62
2021/01/05 08:33:40;;;;;;;1.00;1.00;;;17.90;52.80;;;;;;5104292;28;20208;-62
2021/01/05 08:36:07;;;;;;;0.90;0.90;;;17.80;52.90;;;;;;5105511;28;20177;-63
2021/01/05 08:38:32;;;;;;;1.15;1.05;;;17.80;53.00;;;;;;5087535;28;20950;-63
2021/01/05 08:40:58;;;;;;;0.93;0.93;;;17.70;53.20;;;;;;5086711;28;20187;-64
2021/01/05 08:43:23;;;;;;;0.80;0.80;;;17.70;53.30;;;;;;5105353;28;20238;-65
2021/01/05 08:45:49;;;;;;;1.17;1.08;;;17.60;53.40;;;;;;5105574;28;20654;-64
2021/01/05 08:48:14;;;;;;;1.30;1.20;;;17.60;53.40;;;;;;5105319;28;20549;-65
2021/01/05 08:50:40;;;;;;;1.23;1.15;;;17.60;53.50;;;;;;5105147;28;20223;-64
2021/01/05 08:53:08;;;;;;;1.17;1.08;;;17.60;53.40;;;;;;5104867;28;20254;-65
2021/01/05 08:55:35;;;;;;;1.05;1.00;;;17.60;53.40;;;;;;5104917;28;20205;-64
2021/01/05 08:58:00;;;;;;;1.30;1.20;;;17.70;53.40;;;;;;5104974;28;20215;-65
2021/01/05 09:00:26;;;;;;;1.10;0.90;;;17.70;53.30;;;;;;5105291;28;20196;-64
2021/01/05 09:02:51;;;;;;;0.88;0.88;;;17.80;53.20;;;;;;5086920;28;20180;-64
2021/01/05 09:05:17;;;;;;;1.30;1.17;;;17.80;53.20;;;;;;5105187;28;20200;-65
2021/01/05 09:07:43;;;;;;;1.20;1.00;;;17.80;53.20;;;;;;5087110;28;20173;-65
2021/01/05 09:10:10;;;;;;;1.50;1.05;;;17.80;53.20;;;;;;5104734;28;20173;-65
2021/01/05 09:12:36;;;;;;;1.48;0.98;;;17.80;53.40;;;;;;5086106;28;20292;-66
2021/01/05 09:15:03;;;;;;;0.95;0.90;;;17.70;53.50;;;;;;5104790;28;20260;-65
2021/01/05 09:17:28;;;;;;;1.02;1.02;;;17.70;54.30;;;;;;5104992;28;20272;-66
2021/01/05 09:19:54;;;;;;;1.55;1.10;;;17.60;53.80;;;;;;5104835;28;20686;-63
2021/01/05 09:22:24;;;;;;;1.55;1.40;;;17.60;54.00;;;;;;5104709;28;20572;-66
2021/01/05 09:24:49;;;;;;;1.52;1.20;;;17.50;54.10;;;;;;5086303;28;20242;-63
2021/01/05 09:27:15;;;;;;;2.00;1.10;;;17.50;54.20;;;;;;5104489;28;20609;-65
2021/01/05 09:29:40;;;;;;;4.93;1.50;;;17.50;54.40;;;;;;5104657;28;20161;-65
2021/01/05 09:32:06;;;;;;;4.22;1.40;;;17.50;54.40;;;;;;5103659;28;20197;-65
2021/01/05 09:34:32;;;;;;;2.60;1.70;;;17.60;54.40;;;;;;5104455;28;20188;-64
2021/01/05 09:36:57;;;;;;;2.47;1.55;;;17.60;54.40;;;;;;5104679;28;20181;-64
2021/01/05 09:39:23;;;;;;;2.30;1.25;;;17.70;54.30;;;;;;5104453;28;20295;-65
2021/01/05 09:41:59;;;;;;;2.72;1.48;;;17.70;54.30;;;;;;5104630;28;20528;-61
2021/01/05 09:44:25;;;;;;;1.45;1.35;;;17.60;54.20;;;;;;5087840;28;20869;-64
2021/01/05 09:46:52;;;;;;;1.50;1.40;;;17.60;54.20;;;;;;5086142;28;20178;-63
2021/01/05 09:49:17;;;;;;;2.58;1.80;;;17.50;54.40;;;;;;5086616;28;20185;-66
2021/01/05 09:51:43;;;;;;;2.75;1.40;;;17.40;54.50;;;;;;5103991;28;20185;-65
2021/01/05 09:54:09;;;;;;;1.80;1.50;;;17.40;54.50;;;;;;5104272;28;20185;-64
2021/01/05 09:56:34;;;;;;;4.85;1.42;;;17.40;54.70;;;;;;5069820;28;20242;-64
2021/01/05 09:59:00;;;;;;;2.58;1.65;;;17.50;54.70;;;;;;5104377;28;20237;-63
2021/01/05 10:01:27;;;;;;;2.45;1.63;;;17.50;54.60;;;;;;5104260;28;20280;-64
2021/01/05 10:03:52;;;;;;;1.50;1.40;;;17.60;54.60;;;;;;5104404;28;20855;-64
2021/01/05 10:06:18;;;;;;;1.88;1.58;;;17.70;54.50;;;;;;5104288;28;20177;-65
2021/01/05 10:08:44;;;;;;;1.50;1.40;;;17.70;54.40;;;;;;5104219;28;20188;-63
2021/01/05 10:11:09;;;;;;;1.38;1.27;;;17.70;54.40;;;;;;5091413;28;20186;-65
2021/01/05 10:13:35;;;;;;;3.65;1.70;;;17.60;54.50;;;;;;5065779;28;20698;-65
2021/01/05 10:16:00;;;;;;;1.60;1.50;;;17.60;54.60;;;;;;5083513;28;20178;-63
2021/01/05 10:18:26;;;;;;;1.67;1.20;;;17.60;54.60;;;;;;5065973;28;20235;-65
2021/01/05 10:20:52;;;;;;;2.53;1.60;;;17.50;54.70;;;;;;5083845;28;20205;-66
2021/01/05 10:23:17;;;;;;;2.00;1.40;;;17.50;54.70;;;;;;5083852;28;20578;-65
2021/01/05 10:25:43;;;;;;;1.10;1.00;;;17.50;54.90;;;;;;5082726;28;20178;-65
2021/01/05 10:28:08;;;;;;;3.00;1.75;;;17.50;54.90;;;;;;5061484;28;20243;-65
2021/01/05 10:30:34;;;;;;;2.22;1.60;;;17.50;54.90;;;;;;5061698;28;20195;-66
2021/01/05 10:32:59;;;;;;;1.35;1.25;;;17.60;54.80;;;;;;5062724;28;20260;-65
2021/01/05 10:35:25;;;;;;;2.15;1.50;;;17.50;54.70;;;;;;5062772;28;20185;-64
2021/01/05 10:37:51;;;;;;;1.45;1.33;;;17.60;54.80;;;;;;5062977;28;20549;-64
2021/01/05 10:40:18;;;;;;;2.22;1.50;;;17.60;54.90;;;;;;5063281;28;20186;-65
2021/01/05 10:42:44;;;;;;;4.20;1.58;;;17.50;54.80;;;;;;5062576;28;20209;-65
2021/01/05 10:45:11;;;;;;;2.72;1.70;;;17.50;54.90;;;;;;5063013;28;20628;-68
2021/01/05 10:47:38;;;;;;;2.47;1.60;;;17.40;55.00;;;;;;5063765;28;20587;-65
2021/01/05 10:50:06;;;;;;;3.50;1.70;;;17.40;54.70;;;;;;5063309;28;20264;-64
2021/01/05 10:52:31;;;;;;;2.88;1.70;;;17.40;54.70;;;;;;5063016;28;20668;-66
2021/01/05 10:54:57;;;;;;;1.90;1.58;;;17.50;54.80;;;;;;5062575;28;20236;-66
2021/01/05 10:57:23;;;;;;;1.40;1.30;;;17.50;54.70;;;;;;5063676;28;20250;-65
2021/01/05 10:59:48;;;;;;;2.58;1.50;;;17.60;54.50;;;;;;5066323;28;20174;-65
2021/01/05 11:02:14;;;;;;;1.92;1.45;;;17.80;54.30;;;;;;5066138;28;20228;-63
2021/01/05 11:04:39;;;;;;;2.42;1.50;;;18.10;54.00;;;;;;5066233;28;20171;-65
2021/01/05 11:07:06;;;;;;;2.20;1.40;;;18.30;53.60;;;;;;5065628;28;20181;-63
2021/01/05 11:09:32;;;;;;;2.67;1.35;;;18.50;53.20;;;;;;5065597;28;20182;-65
2021/01/05 11:12:02;;;;;;;3.78;1.40;;;18.80;52.90;;;;;;5066493;28;20564;-64
2021/01/05 11:14:27;;;;;;;1.40;1.30;;;19.00;52.60;;;;;;5066659;28;20620;-65
2021/01/05 11:16:53;;;;;;;2.03;1.20;;;19.20;52.20;;;;;;5066401;28;20177;-65
2021/01/05 11:19:18;;;;;;;2.83;1.55;;;19.30;52.00;;;;;;5066819;28;20177;-65
2021/01/05 11:21:51;;;;;;;1.50;1.40;;;19.40;51.80;;;;;;5066144;28;20182;-65
2021/01/05 11:24:17;;;;;;;2.45;1.30;;;19.60;51.70;;;;;;5065377;28;20182;-66
2021/01/05 11:26:42;;;;;;;2.15;1.48;;;19.50;51.70;;;;;;5066699;28;20175;-64
2021/01/05 11:29:08;;;;;;;1.30;1.20;;;19.50;51.80;;;;;;5083022;28;20200;-66
2021/01/05 11:31:33;;;;;;;1.27;1.10;;;19.50;51.90;;;;;;5086137;28;20527;-64
2021/01/05 11:33:59;;;;;;;1.58;1.20;;;19.50;51.90;;;;;;5086411;28;20186;-65
2021/01/05 11:36:28;;;;;;;1.30;1.20;;;19.40;51.90;;;;;;5086480;28;20257;-64
2021/01/05 11:38:54;;;;;;;1.30;1.20;;;19.40;52.10;;;;;;5086555;28;20165;-66
2021/01/05 11:41:27;;;;;;;1.27;1.13;;;19.40;52.30;;;;;;5067988;28;20541;-65
2021/01/05 11:43:53;;;;;;;2.25;1.58;;;19.40;52.30;;;;;;5086074;28;20654;-64
2021/01/05 11:46:19;;;;;;;1.23;1.02;;;19.30;52.40;;;;;;5068116;28;20253;-65
2021/01/05 11:48:45;;;;;;;1.30;1.20;;;19.30;52.40;;;;;;5068126;28;20174;-66
2021/01/05 11:51:16;;;;;;;1.20;1.10;;;19.20;52.60;;;;;;5085912;28;20174;-65
2021/01/05 11:53:41;;;;;;;1.17;1.08;;;19.20;52.60;;;;;;5085855;28;20201;-65
2021/01/05 11:56:07;;;;;;;1.20;1.10;;;19.20;52.70;;;;;;5086153;28;20243;-65
2021/01/05 11:58:33;;;;;;;2.15;1.10;;;19.20;52.80;;;;;;5085939;28;20189;-66
2021/01/05 12:00:58;;;;;;;1.50;1.40;;;19.10;52.80;;;;;;5085549;28;20568;-66
2021/01/05 12:03:24;;;;;;;1.23;1.13;;;19.20;52.80;;;;;;5085793;28;20170;-66
2021/01/05 12:05:49;;;;;;;1.45;1.15;;;19.10;52.90;;;;;;5085801;28;20538;-66
2021/01/05 12:08:15;;;;;;;1.00;0.90;;;19.00;52.80;;;;;;5085431;28;20555;-63
2021/01/05 12:10:40;;;;;;;1.58;1.10;;;19.00;52.80;;;;;;5085633;28;20209;-65
2021/01/05 12:13:07;;;;;;;1.98;1.10;;;19.00;52.70;;;;;;5085480;28;20267;-65
2021/01/05 12:15:32;;;;;;;1.50;1.40;;;19.00;52.60;;;;;;5085455;28;20178;-63
2021/01/05 12:17:58;;;;;;;2.67;1.20;;;19.10;52.60;;;;;;5086337;28;20616;-62
2021/01/05 12:20:23;;;;;;;2.42;1.45;;;19.00;52.40;;;;;;5085442;28;20574;-62
2021/01/05 12:22:49;;;;;;;1.58;1.48;;;19.10;52.50;;;;;;5085639;28;20283;-60
2021/01/05 12:25:14;;;;;;;1.02;1.00;;;19.10;52.50;;;;;;5085495;28;20201;-61
2021/01/05 12:27:40;;;;;;;5.13;1.52;;;19.10;52.60;;;;;;5085459;28;20213;-60
2021/01/05 12:30:06;;;;;;;1.48;1.38;;;19.10;52.70;;;;;;5085588;28;20165;-63
2021/01/05 12:32:31;;;;;;;1.42;1.33;;;19.10;52.80;;;;;;5085546;28;20205;-61
2021/01/05 12:34:57;;;;;;;2.17;1.10;;;19.10;52.80;;;;;;5067375;28;20182;-61
2021/01/05 12:37:24;;;;;;;3.47;1.40;;;19.10;52.80;;;;;;5085162;28;20178;-61
2021/01/05 12:39:49;;;;;;;4.40;1.50;;;19.10;52.80;;;;;;5067356;28;20173;-61
2021/01/05 12:42:20;;;;;;;2.47;1.45;;;19.20;52.90;;;;;;5085228;28;20264;-62
2021/01/05 12:44:46;;;;;;;4.05;1.80;;;19.20;52.90;;;;;;5085130;28;20530;-62
2021/01/05 12:47:12;;;;;;;3.35;1.40;;;19.20;52.90;;;;;;5084934;28;20184;-63
2021/01/05 12:49:37;;;;;;;4.05;1.60;;;19.10;52.80;;;;;;5084725;28;20181;-64
2021/01/05 12:52:08;;;;;;;2.33;1.30;;;19.10;52.90;;;;;;5083998;28;20202;-64
2021/01/05 12:54:34;;;;;;;2.22;1.33;;;19.00;52.90;;;;;;5084350;28;20174;-63
2021/01/05 12:57:00;;;;;;;2.95;1.52;;;19.00;52.90;;;;;;5084029;28;20297;-63